sensor_id;sensor_type;location;lat;lon;timestamp;P1;durP1;ratioP1;P2;durP2;ratioP2
30818;SDS011;17546;42.674;23.284;2023-06-14T00:01:56;17.23;;;10.60;;
30818;SDS011;17546;42.674;23.284;2023-06-14T00:04:22;17.58;;;10.43;;
30818;SDS011;17546;42.674;23.284;2023-06-14T00:06:53;15.48;;;9.80;;
30818;SDS011;17546;42.674;23.284;2023-06-14T00:09:21;12.40;;;9.35;;
30818;SDS011;17546;42.674;23.284;2023-06-14T00:11:47;12.70;;;8.52;;
30818;SDS011;17546;42.674;23.284;2023-06-14T00:14:15;16.65;;;8.38;;
30818;SDS011;17546;42.674;23.284;2023-06-14T00:16:41;12.15;;;8.73;;
30818;SDS011;17546;42.674;23.284;2023-06-14T00:19:07;12.73;;;9.07;;
30818;SDS011;17546;42.674;23.284;2023-06-14T00:21:35;14.13;;;9.70;;
30818;SDS011;17546;42.674;23.284;2023-06-14T00:24:01;16.42;;;8.38;;
30818;SDS011;17546;42.674;23.284;2023-06-14T00:26:27;16.73;;;8.88;;
30818;SDS011;17546;42.674;23.284;2023-06-14T00:28:56;11.43;;;9.18;;
30818;SDS011;17546;42.674;23.284;2023-06-14T00:31:25;16.60;;;8.68;;
30818;SDS011;17546;42.674;23.284;2023-06-14T00:33:53;13.52;;;8.73;;
30818;SDS011;17546;42.674;23.284;2023-06-14T00:36:19;12.70;;;8.57;;
30818;SDS011;17546;42.674;23.284;2023-06-14T00:38:44;12.45;;;8.35;;
30818;SDS011;17546;42.674;23.284;2023-06-14T00:41:15;14.38;;;8.70;;
30818;SDS011;17546;42.674;23.284;2023-06-14T00:43:40;15.10;;;9.00;;
30818;SDS011;17546;42.674;23.284;2023-06-14T00:46:06;15.95;;;8.43;;
30818;SDS011;17546;42.674;23.284;2023-06-14T00:48:31;11.80;;;8.25;;
30818;SDS011;17546;42.674;23.284;2023-06-14T00:50:58;9.82;;;7.80;;
30818;SDS011;17546;42.674;23.284;2023-06-14T00:53:28;11.85;;;7.75;;
30818;SDS011;17546;42.674;23.284;2023-06-14T00:56:04;10.38;;;7.70;;
30818;SDS011;17546;42.674;23.284;2023-06-14T00:58:30;11.65;;;7.28;;
30818;SDS011;17546;42.674;23.284;2023-06-14T01:01:00;13.70;;;6.93;;
30818;SDS011;17546;42.674;23.284;2023-06-14T01:03:27;9.18;;;6.15;;
30818;SDS011;17546;42.674;23.284;2023-06-14T01:05:56;17.90;;;6.57;;
30818;SDS011;17546;42.674;23.284;2023-06-14T01:08:41;9.02;;;6.40;;
30818;SDS011;17546;42.674;23.284;2023-06-14T01:11:41;7.75;;;5.82;;
30818;SDS011;17546;42.674;23.284;2023-06-14T01:14:06;10.77;;;6.07;;
30818;SDS011;17546;42.674;23.284;2023-06-14T01:16:35;10.18;;;6.20;;
30818;SDS011;17546;42.674;23.284;2023-06-14T01:19:01;11.63;;;6.03;;
30818;SDS011;17546;42.674;23.284;2023-06-14T01:21:27;7.60;;;6.15;;
30818;SDS011;17546;42.674;23.284;2023-06-14T01:23:53;10.32;;;6.90;;
30818;SDS011;17546;42.674;23.284;2023-06-14T01:26:22;11.73;;;7.43;;
30818;SDS011;17546;42.674;23.284;2023-06-14T01:28:48;14.90;;;7.88;;
30818;SDS011;17546;42.674;23.284;2023-06-14T01:31:18;12.52;;;8.30;;
30818;SDS011;17546;42.674;23.284;2023-06-14T01:33:49;11.63;;;8.48;;
30818;SDS011;17546;42.674;23.284;2023-06-14T01:36:17;15.60;;;7.45;;
30818;SDS011;17546;42.674;23.284;2023-06-14T01:38:46;9.80;;;7.20;;
30818;SDS011;17546;42.674;23.284;2023-06-14T01:41:15;14.13;;;6.63;;
30818;SDS011;17546;42.674;23.284;2023-06-14T01:43:45;11.70;;;7.30;;
30818;SDS011;17546;42.674;23.284;2023-06-14T01:46:14;9.90;;;7.32;;
30818;SDS011;17546;42.674;23.284;2023-06-14T01:48:42;14.50;;;7.05;;
30818;SDS011;17546;42.674;23.284;2023-06-14T01:51:08;9.98;;;6.15;;
30818;SDS011;17546;42.674;23.284;2023-06-14T01:53:34;7.80;;;5.57;;
30818;SDS011;17546;42.674;23.284;2023-06-14T01:55:59;7.47;;;5.50;;
30818;SDS011;17546;42.674;23.284;2023-06-14T01:58:26;11.18;;;5.03;;
30818;SDS011;17546;42.674;23.284;2023-06-14T02:00:55;8.68;;;5.22;;
30818;SDS011;17546;42.674;23.284;2023-06-14T02:03:21;12.25;;;5.10;;
30818;SDS011;17546;42.674;23.284;2023-06-14T02:05:48;7.78;;;5.28;;
30818;SDS011;17546;42.674;23.284;2023-06-14T02:08:13;7.05;;;5.30;;
30818;SDS011;17546;42.674;23.284;2023-06-14T02:10:39;11.00;;;5.25;;
30818;SDS011;17546;42.674;23.284;2023-06-14T02:13:04;11.05;;;5.82;;
30818;SDS011;17546;42.674;23.284;2023-06-14T02:15:29;7.53;;;5.80;;
30818;SDS011;17546;42.674;23.284;2023-06-14T02:18:02;9.52;;;5.80;;
30818;SDS011;17546;42.674;23.284;2023-06-14T02:20:28;15.88;;;6.05;;
30818;SDS011;17546;42.674;23.284;2023-06-14T02:22:54;7.07;;;5.78;;
30818;SDS011;17546;42.674;23.284;2023-06-14T02:25:20;8.63;;;6.05;;
30818;SDS011;17546;42.674;23.284;2023-06-14T02:27:45;7.75;;;5.72;;
30818;SDS011;17546;42.674;23.284;2023-06-14T02:30:11;7.45;;;5.80;;
30818;SDS011;17546;42.674;23.284;2023-06-14T02:32:37;8.00;;;6.18;;
30818;SDS011;17546;42.674;23.284;2023-06-14T02:35:03;10.80;;;5.97;;
30818;SDS011;17546;42.674;23.284;2023-06-14T02:37:29;14.00;;;6.00;;
30818;SDS011;17546;42.674;23.284;2023-06-14T02:39:55;8.45;;;5.75;;
30818;SDS011;17546;42.674;23.284;2023-06-14T02:42:21;14.48;;;5.82;;
30818;SDS011;17546;42.674;23.284;2023-06-14T02:44:46;9.73;;;5.78;;
30818;SDS011;17546;42.674;23.284;2023-06-14T02:47:18;10.82;;;5.75;;
30818;SDS011;17546;42.674;23.284;2023-06-14T02:49:44;7.95;;;5.50;;
30818;SDS011;17546;42.674;23.284;2023-06-14T02:52:11;6.18;;;5.40;;
30818;SDS011;17546;42.674;23.284;2023-06-14T02:54:37;8.05;;;4.95;;
30818;SDS011;17546;42.674;23.284;2023-06-14T02:57:03;5.75;;;5.03;;
30818;SDS011;17546;42.674;23.284;2023-06-14T02:59:28;7.95;;;5.38;;
30818;SDS011;17546;42.674;23.284;2023-06-14T03:01:54;6.80;;;5.63;;
30818;SDS011;17546;42.674;23.284;2023-06-14T03:04:19;7.82;;;5.32;;
30818;SDS011;17546;42.674;23.284;2023-06-14T03:06:45;10.27;;;5.32;;
30818;SDS011;17546;42.674;23.284;2023-06-14T03:09:15;12.20;;;5.40;;
30818;SDS011;17546;42.674;23.284;2023-06-14T03:11:42;6.85;;;5.18;;
30818;SDS011;17546;42.674;23.284;2023-06-14T03:14:08;7.05;;;5.05;;
30818;SDS011;17546;42.674;23.284;2023-06-14T03:16:33;8.18;;;5.13;;
30818;SDS011;17546;42.674;23.284;2023-06-14T03:19:00;8.18;;;5.18;;
30818;SDS011;17546;42.674;23.284;2023-06-14T03:21:25;8.30;;;5.78;;
30818;SDS011;17546;42.674;23.284;2023-06-14T03:23:53;7.22;;;5.45;;
30818;SDS011;17546;42.674;23.284;2023-06-14T03:26:19;7.07;;;5.43;;
30818;SDS011;17546;42.674;23.284;2023-06-14T03:28:45;12.85;;;5.95;;
30818;SDS011;17546;42.674;23.284;2023-06-14T03:31:11;8.50;;;6.03;;
30818;SDS011;17546;42.674;23.284;2023-06-14T03:33:40;8.50;;;5.22;;
30818;SDS011;17546;42.674;23.284;2023-06-14T03:36:05;13.98;;;5.90;;
30818;SDS011;17546;42.674;23.284;2023-06-14T03:38:34;8.80;;;5.82;;
30818;SDS011;17546;42.674;23.284;2023-06-14T03:41:00;8.02;;;5.82;;
30818;SDS011;17546;42.674;23.284;2023-06-14T03:43:25;13.80;;;6.10;;
30818;SDS011;17546;42.674;23.284;2023-06-14T03:45:51;11.00;;;5.78;;
30818;SDS011;17546;42.674;23.284;2023-06-14T03:48:17;11.55;;;6.10;;
30818;SDS011;17546;42.674;23.284;2023-06-14T03:50:42;9.55;;;5.65;;
30818;SDS011;17546;42.674;23.284;2023-06-14T03:53:09;6.50;;;5.80;;
30818;SDS011;17546;42.674;23.284;2023-06-14T03:55:35;9.93;;;5.97;;
30818;SDS011;17546;42.674;23.284;2023-06-14T03:58:00;9.07;;;5.55;;
30818;SDS011;17546;42.674;23.284;2023-06-14T04:00:26;10.48;;;6.20;;
30818;SDS011;17546;42.674;23.284;2023-06-14T04:02:51;8.57;;;6.28;;
30818;SDS011;17546;42.674;23.284;2023-06-14T04:05:18;10.43;;;6.32;;
30818;SDS011;17546;42.674;23.284;2023-06-14T04:07:44;10.90;;;6.40;;
30818;SDS011;17546;42.674;23.284;2023-06-14T04:10:13;11.50;;;5.93;;
30818;SDS011;17546;42.674;23.284;2023-06-14T04:12:39;9.07;;;6.55;;
30818;SDS011;17546;42.674;23.284;2023-06-14T04:15:05;10.43;;;5.80;;
30818;SDS011;17546;42.674;23.284;2023-06-14T04:17:31;10.05;;;6.38;;
30818;SDS011;17546;42.674;23.284;2023-06-14T04:19:58;15.98;;;6.50;;
30818;SDS011;17546;42.674;23.284;2023-06-14T04:22:25;10.30;;;7.28;;
30818;SDS011;17546;42.674;23.284;2023-06-14T04:24:53;13.07;;;7.43;;
30818;SDS011;17546;42.674;23.284;2023-06-14T04:27:21;8.93;;;7.50;;
30818;SDS011;17546;42.674;23.284;2023-06-14T04:29:50;14.40;;;7.78;;
30818;SDS011;17546;42.674;23.284;2023-06-14T04:32:21;13.02;;;8.65;;
30818;SDS011;17546;42.674;23.284;2023-06-14T04:34:57;12.98;;;8.48;;
30818;SDS011;17546;42.674;23.284;2023-06-14T04:37:24;10.93;;;8.25;;
30818;SDS011;17546;42.674;23.284;2023-06-14T04:39:53;11.35;;;8.15;;
30818;SDS011;17546;42.674;23.284;2023-06-14T04:42:21;11.20;;;7.93;;
30818;SDS011;17546;42.674;23.284;2023-06-14T04:44:50;10.88;;;8.30;;
30818;SDS011;17546;42.674;23.284;2023-06-14T04:47:16;11.77;;;9.32;;
30818;SDS011;17546;42.674;23.284;2023-06-14T04:49:43;14.93;;;9.27;;
30818;SDS011;17546;42.674;23.284;2023-06-14T04:52:09;15.82;;;9.60;;
30818;SDS011;17546;42.674;23.284;2023-06-14T04:54:37;16.33;;;9.07;;
30818;SDS011;17546;42.674;23.284;2023-06-14T04:57:04;15.90;;;10.15;;
30818;SDS011;17546;42.674;23.284;2023-06-14T04:59:30;13.68;;;9.65;;
30818;SDS011;17546;42.674;23.284;2023-06-14T05:01:58;13.93;;;9.15;;
30818;SDS011;17546;42.674;23.284;2023-06-14T05:04:25;15.80;;;9.48;;
30818;SDS011;17546;42.674;23.284;2023-06-14T05:06:51;17.92;;;10.30;;
30818;SDS011;17546;42.674;23.284;2023-06-14T05:09:19;14.35;;;10.05;;
30818;SDS011;17546;42.674;23.284;2023-06-14T05:11:46;15.93;;;10.00;;
30818;SDS011;17546;42.674;23.284;2023-06-14T05:14:21;13.10;;;9.60;;
30818;SDS011;17546;42.674;23.284;2023-06-14T05:16:47;19.35;;;10.25;;
30818;SDS011;17546;42.674;23.284;2023-06-14T05:19:13;17.63;;;10.88;;
30818;SDS011;17546;42.674;23.284;2023-06-14T05:21:39;12.60;;;10.18;;
30818;SDS011;17546;42.674;23.284;2023-06-14T05:24:05;14.77;;;10.43;;
30818;SDS011;17546;42.674;23.284;2023-06-14T05:26:30;14.93;;;10.43;;
30818;SDS011;17546;42.674;23.284;2023-06-14T05:28:56;16.42;;;10.60;;
30818;SDS011;17546;42.674;23.284;2023-06-14T05:31:22;18.00;;;11.05;;
30818;SDS011;17546;42.674;23.284;2023-06-14T05:33:51;18.95;;;11.13;;
30818;SDS011;17546;42.674;23.284;2023-06-14T05:36:18;17.63;;;10.88;;
30818;SDS011;17546;42.674;23.284;2023-06-14T05:38:44;16.27;;;11.07;;
30818;SDS011;17546;42.674;23.284;2023-06-14T05:41:22;17.67;;;11.73;;
30818;SDS011;17546;42.674;23.284;2023-06-14T05:43:52;14.30;;;10.70;;
30818;SDS011;17546;42.674;23.284;2023-06-14T05:46:18;17.02;;;11.65;;
30818;SDS011;17546;42.674;23.284;2023-06-14T05:48:47;18.92;;;11.13;;
30818;SDS011;17546;42.674;23.284;2023-06-14T05:51:16;18.55;;;11.40;;
30818;SDS011;17546;42.674;23.284;2023-06-14T05:53:47;21.40;;;14.73;;
30818;SDS011;17546;42.674;23.284;2023-06-14T05:56:13;22.27;;;14.55;;
30818;SDS011;17546;42.674;23.284;2023-06-14T05:58:39;18.45;;;12.45;;
30818;SDS011;17546;42.674;23.284;2023-06-14T06:01:05;21.20;;;12.73;;
30818;SDS011;17546;42.674;23.284;2023-06-14T06:03:38;21.17;;;12.57;;
30818;SDS011;17546;42.674;23.284;2023-06-14T06:06:04;19.30;;;12.60;;
30818;SDS011;17546;42.674;23.284;2023-06-14T06:08:30;19.17;;;12.40;;
30818;SDS011;17546;42.674;23.284;2023-06-14T06:10:56;21.35;;;11.65;;
30818;SDS011;17546;42.674;23.284;2023-06-14T06:13:22;21.77;;;11.65;;
30818;SDS011;17546;42.674;23.284;2023-06-14T06:15:49;17.52;;;10.73;;
30818;SDS011;17546;42.674;23.284;2023-06-14T06:18:15;21.77;;;11.00;;
30818;SDS011;17546;42.674;23.284;2023-06-14T06:20:41;19.05;;;11.05;;
30818;SDS011;17546;42.674;23.284;2023-06-14T06:23:06;19.15;;;10.30;;
30818;SDS011;17546;42.674;23.284;2023-06-14T06:25:32;23.88;;;10.43;;
30818;SDS011;17546;42.674;23.284;2023-06-14T06:27:58;17.55;;;11.05;;
30818;SDS011;17546;42.674;23.284;2023-06-14T06:30:23;16.38;;;10.30;;
30818;SDS011;17546;42.674;23.284;2023-06-14T06:32:50;19.88;;;10.30;;
30818;SDS011;17546;42.674;23.284;2023-06-14T06:35:16;18.20;;;11.52;;
30818;SDS011;17546;42.674;23.284;2023-06-14T06:37:42;17.83;;;10.85;;
30818;SDS011;17546;42.674;23.284;2023-06-14T06:40:07;17.75;;;12.20;;
30818;SDS011;17546;42.674;23.284;2023-06-14T06:42:33;18.80;;;11.23;;
30818;SDS011;17546;42.674;23.284;2023-06-14T06:45:00;19.27;;;11.73;;
30818;SDS011;17546;42.674;23.284;2023-06-14T06:47:25;18.90;;;12.18;;
30818;SDS011;17546;42.674;23.284;2023-06-14T06:49:51;20.25;;;11.18;;
30818;SDS011;17546;42.674;23.284;2023-06-14T06:52:16;19.40;;;11.15;;
30818;SDS011;17546;42.674;23.284;2023-06-14T06:54:42;20.63;;;12.13;;
30818;SDS011;17546;42.674;23.284;2023-06-14T06:57:07;22.00;;;12.40;;
30818;SDS011;17546;42.674;23.284;2023-06-14T06:59:33;20.80;;;12.68;;
30818;SDS011;17546;42.674;23.284;2023-06-14T07:01:59;28.75;;;12.98;;
30818;SDS011;17546;42.674;23.284;2023-06-14T07:04:24;22.23;;;13.10;;
30818;SDS011;17546;42.674;23.284;2023-06-14T07:06:50;19.45;;;12.77;;
30818;SDS011;17546;42.674;23.284;2023-06-14T07:09:17;19.27;;;12.80;;
30818;SDS011;17546;42.674;23.284;2023-06-14T07:11:44;19.23;;;11.73;;
30818;SDS011;17546;42.674;23.284;2023-06-14T07:14:15;18.55;;;12.40;;
30818;SDS011;17546;42.674;23.284;2023-06-14T07:16:40;25.27;;;12.80;;
30818;SDS011;17546;42.674;23.284;2023-06-14T07:19:06;18.17;;;12.93;;
30818;SDS011;17546;42.674;23.284;2023-06-14T07:21:31;17.45;;;13.18;;
30818;SDS011;17546;42.674;23.284;2023-06-14T07:23:57;21.75;;;12.80;;
30818;SDS011;17546;42.674;23.284;2023-06-14T07:26:23;23.27;;;12.32;;
30818;SDS011;17546;42.674;23.284;2023-06-14T07:28:48;19.77;;;11.70;;
30818;SDS011;17546;42.674;23.284;2023-06-14T07:31:14;26.60;;;12.13;;
30818;SDS011;17546;42.674;23.284;2023-06-14T07:33:41;24.20;;;14.73;;
30818;SDS011;17546;42.674;23.284;2023-06-14T07:36:07;23.45;;;15.10;;
30818;SDS011;17546;42.674;23.284;2023-06-14T07:38:33;16.98;;;11.85;;
30818;SDS011;17546;42.674;23.284;2023-06-14T07:41:14;22.45;;;12.18;;
30818;SDS011;17546;42.674;23.284;2023-06-14T07:43:39;17.20;;;11.52;;
30818;SDS011;17546;42.674;23.284;2023-06-14T07:46:06;22.48;;;11.88;;
30818;SDS011;17546;42.674;23.284;2023-06-14T07:48:32;20.42;;;13.38;;
30818;SDS011;17546;42.674;23.284;2023-06-14T07:50:57;18.08;;;12.93;;
30818;SDS011;17546;42.674;23.284;2023-06-14T07:53:23;22.23;;;12.05;;
30818;SDS011;17546;42.674;23.284;2023-06-14T07:55:48;27.52;;;12.00;;
30818;SDS011;17546;42.674;23.284;2023-06-14T07:58:14;18.27;;;11.73;;
30818;SDS011;17546;42.674;23.284;2023-06-14T08:00:40;24.35;;;12.10;;
30818;SDS011;17546;42.674;23.284;2023-06-14T08:03:05;22.83;;;11.50;;
30818;SDS011;17546;42.674;23.284;2023-06-14T08:05:35;17.25;;;11.27;;
30818;SDS011;17546;42.674;23.284;2023-06-14T08:08:01;17.80;;;11.50;;
30818;SDS011;17546;42.674;23.284;2023-06-14T08:10:26;20.35;;;12.13;;
30818;SDS011;17546;42.674;23.284;2023-06-14T08:12:52;18.83;;;11.20;;
30818;SDS011;17546;42.674;23.284;2023-06-14T08:15:17;21.90;;;12.25;;
30818;SDS011;17546;42.674;23.284;2023-06-14T08:17:43;21.02;;;12.75;;
30818;SDS011;17546;42.674;23.284;2023-06-14T08:20:09;22.55;;;12.55;;
30818;SDS011;17546;42.674;23.284;2023-06-14T08:22:36;22.98;;;11.80;;
30818;SDS011;17546;42.674;23.284;2023-06-14T08:25:02;22.25;;;11.68;;
30818;SDS011;17546;42.674;23.284;2023-06-14T08:27:35;18.67;;;11.70;;
30818;SDS011;17546;42.674;23.284;2023-06-14T08:30:01;16.92;;;11.15;;
30818;SDS011;17546;42.674;23.284;2023-06-14T08:32:28;21.10;;;11.18;;
30818;SDS011;17546;42.674;23.284;2023-06-14T08:34:58;17.63;;;10.40;;
30818;SDS011;17546;42.674;23.284;2023-06-14T08:37:23;13.57;;;9.98;;
30818;SDS011;17546;42.674;23.284;2023-06-14T08:39:49;15.57;;;10.80;;
30818;SDS011;17546;42.674;23.284;2023-06-14T08:42:15;31.35;;;22.23;;
30818;SDS011;17546;42.674;23.284;2023-06-14T08:44:44;22.25;;;13.82;;
30818;SDS011;17546;42.674;23.284;2023-06-14T08:47:09;22.13;;;13.05;;
30818;SDS011;17546;42.674;23.284;2023-06-14T08:49:36;20.40;;;12.05;;
30818;SDS011;17546;42.674;23.284;2023-06-14T08:52:03;19.92;;;11.88;;
30818;SDS011;17546;42.674;23.284;2023-06-14T08:54:33;21.98;;;13.63;;
30818;SDS011;17546;42.674;23.284;2023-06-14T08:57:01;18.52;;;12.00;;
30818;SDS011;17546;42.674;23.284;2023-06-14T08:59:27;17.88;;;11.30;;
30818;SDS011;17546;42.674;23.284;2023-06-14T09:02:13;21.75;;;11.50;;
30818;SDS011;17546;42.674;23.284;2023-06-14T09:04:39;20.15;;;11.77;;
30818;SDS011;17546;42.674;23.284;2023-06-14T09:07:07;17.80;;;11.98;;
30818;SDS011;17546;42.674;23.284;2023-06-14T09:09:38;17.85;;;11.80;;
30818;SDS011;17546;42.674;23.284;2023-06-14T09:12:06;23.90;;;13.10;;
30818;SDS011;17546;42.674;23.284;2023-06-14T09:14:35;15.75;;;11.75;;
30818;SDS011;17546;42.674;23.284;2023-06-14T09:17:03;21.60;;;11.63;;
30818;SDS011;17546;42.674;23.284;2023-06-14T09:19:30;20.05;;;11.27;;
30818;SDS011;17546;42.674;23.284;2023-06-14T09:21:56;17.50;;;11.18;;
30818;SDS011;17546;42.674;23.284;2023-06-14T09:24:23;17.02;;;11.93;;
30818;SDS011;17546;42.674;23.284;2023-06-14T09:26:50;25.90;;;11.27;;
30818;SDS011;17546;42.674;23.284;2023-06-14T09:29:16;18.45;;;10.80;;
30818;SDS011;17546;42.674;23.284;2023-06-14T09:31:47;15.95;;;11.23;;
30818;SDS011;17546;42.674;23.284;2023-06-14T09:34:12;14.48;;;10.73;;
30818;SDS011;17546;42.674;23.284;2023-06-14T09:36:38;18.27;;;10.20;;
30818;SDS011;17546;42.674;23.284;2023-06-14T09:39:07;25.10;;;11.82;;
30818;SDS011;17546;42.674;23.284;2023-06-14T09:41:37;20.77;;;11.20;;
30818;SDS011;17546;42.674;23.284;2023-06-14T09:44:05;14.27;;;10.55;;
30818;SDS011;17546;42.674;23.284;2023-06-14T09:46:32;16.75;;;11.30;;
30818;SDS011;17546;42.674;23.284;2023-06-14T09:48:58;17.98;;;10.63;;
30818;SDS011;17546;42.674;23.284;2023-06-14T09:51:24;17.17;;;9.93;;
30818;SDS011;17546;42.674;23.284;2023-06-14T09:53:51;19.65;;;10.50;;
30818;SDS011;17546;42.674;23.284;2023-06-14T09:56:19;17.95;;;11.13;;
30818;SDS011;17546;42.674;23.284;2023-06-14T09:58:46;14.75;;;11.15;;
30818;SDS011;17546;42.674;23.284;2023-06-14T10:01:13;18.27;;;11.23;;
30818;SDS011;17546;42.674;23.284;2023-06-14T10:03:41;16.40;;;11.10;;
30818;SDS011;17546;42.674;23.284;2023-06-14T10:06:09;17.35;;;11.02;;
30818;SDS011;17546;42.674;23.284;2023-06-14T10:08:35;17.38;;;10.98;;
30818;SDS011;17546;42.674;23.284;2023-06-14T10:11:02;18.90;;;10.77;;
30818;SDS011;17546;42.674;23.284;2023-06-14T10:13:28;18.83;;;11.02;;
30818;SDS011;17546;42.674;23.284;2023-06-14T10:16:00;19.90;;;11.00;;
30818;SDS011;17546;42.674;23.284;2023-06-14T10:18:53;19.42;;;10.50;;
30818;SDS011;17546;42.674;23.284;2023-06-14T10:24:33;20.73;;;10.63;;
30818;SDS011;17546;42.674;23.284;2023-06-14T10:27:13;17.20;;;10.25;;
30818;SDS011;17546;42.674;23.284;2023-06-14T10:32:26;17.35;;;10.52;;
30818;SDS011;17546;42.674;23.284;2023-06-14T10:35:05;19.88;;;12.80;;
30818;SDS011;17546;42.674;23.284;2023-06-14T10:37:34;21.23;;;12.43;;
30818;SDS011;17546;42.674;23.284;2023-06-14T10:40:00;18.48;;;13.40;;
30818;SDS011;17546;42.674;23.284;2023-06-14T10:42:32;36.13;;;13.48;;
30818;SDS011;17546;42.674;23.284;2023-06-14T10:44:58;19.13;;;12.38;;
30818;SDS011;17546;42.674;23.284;2023-06-14T10:47:30;21.27;;;12.88;;
30818;SDS011;17546;42.674;23.284;2023-06-14T10:50:07;19.20;;;12.55;;
30818;SDS011;17546;42.674;23.284;2023-06-14T10:52:41;18.20;;;12.77;;
30818;SDS011;17546;42.674;23.284;2023-06-14T10:55:11;16.67;;;10.95;;
30818;SDS011;17546;42.674;23.284;2023-06-14T10:57:50;13.73;;;10.48;;
30818;SDS011;17546;42.674;23.284;2023-06-14T11:00:24;21.85;;;10.38;;
30818;SDS011;17546;42.674;23.284;2023-06-14T11:05:48;15.32;;;10.13;;
30818;SDS011;17546;42.674;23.284;2023-06-14T11:11:15;17.50;;;10.07;;
30818;SDS011;17546;42.674;23.284;2023-06-14T11:13:43;18.20;;;9.52;;
30818;SDS011;17546;42.674;23.284;2023-06-14T11:16:16;14.55;;;9.70;;
30818;SDS011;17546;42.674;23.284;2023-06-14T11:18:43;13.80;;;10.45;;
30818;SDS011;17546;42.674;23.284;2023-06-14T11:21:10;22.10;;;9.55;;
30818;SDS011;17546;42.674;23.284;2023-06-14T11:23:36;18.90;;;10.55;;
30818;SDS011;17546;42.674;23.284;2023-06-14T11:26:02;13.15;;;9.85;;
30818;SDS011;17546;42.674;23.284;2023-06-14T11:28:39;14.93;;;9.52;;
30818;SDS011;17546;42.674;23.284;2023-06-14T11:31:10;17.98;;;9.57;;
30818;SDS011;17546;42.674;23.284;2023-06-14T11:33:36;15.52;;;9.93;;
30818;SDS011;17546;42.674;23.284;2023-06-14T11:36:02;19.00;;;10.00;;
30818;SDS011;17546;42.674;23.284;2023-06-14T11:38:36;13.77;;;9.50;;
30818;SDS011;17546;42.674;23.284;2023-06-14T11:41:02;21.98;;;9.63;;
30818;SDS011;17546;42.674;23.284;2023-06-14T11:43:28;18.33;;;8.70;;
30818;SDS011;17546;42.674;23.284;2023-06-14T11:45:55;21.98;;;9.40;;
30818;SDS011;17546;42.674;23.284;2023-06-14T11:48:21;18.42;;;10.20;;
30818;SDS011;17546;42.674;23.284;2023-06-14T11:50:49;10.93;;;9.07;;
30818;SDS011;17546;42.674;23.284;2023-06-14T11:53:15;12.00;;;9.13;;
30818;SDS011;17546;42.674;23.284;2023-06-14T11:55:43;16.58;;;9.23;;
30818;SDS011;17546;42.674;23.284;2023-06-14T11:58:10;14.60;;;9.32;;
30818;SDS011;17546;42.674;23.284;2023-06-14T12:00:49;15.90;;;8.38;;
30818;SDS011;17546;42.674;23.284;2023-06-14T12:03:17;12.27;;;8.32;;
30818;SDS011;17546;42.674;23.284;2023-06-14T12:05:42;13.30;;;9.38;;
30818;SDS011;17546;42.674;23.284;2023-06-14T12:08:08;14.98;;;9.10;;
30818;SDS011;17546;42.674;23.284;2023-06-14T12:10:41;11.75;;;7.75;;
30818;SDS011;17546;42.674;23.284;2023-06-14T12:13:08;10.63;;;7.32;;
30818;SDS011;17546;42.674;23.284;2023-06-14T12:15:34;10.23;;;7.80;;
30818;SDS011;17546;42.674;23.284;2023-06-14T12:18:00;13.93;;;7.45;;
30818;SDS011;17546;42.674;23.284;2023-06-14T12:20:30;19.38;;;7.57;;
30818;SDS011;17546;42.674;23.284;2023-06-14T12:22:56;11.57;;;8.10;;
30818;SDS011;17546;42.674;23.284;2023-06-14T12:25:25;13.55;;;8.00;;
30818;SDS011;17546;42.674;23.284;2023-06-14T12:27:59;15.05;;;7.45;;
30818;SDS011;17546;42.674;23.284;2023-06-14T12:30:33;15.00;;;7.30;;
30818;SDS011;17546;42.674;23.284;2023-06-14T12:33:02;12.85;;;7.90;;
30818;SDS011;17546;42.674;23.284;2023-06-14T12:35:28;10.32;;;7.35;;
30818;SDS011;17546;42.674;23.284;2023-06-14T12:38:13;9.57;;;7.43;;
30818;SDS011;17546;42.674;23.284;2023-06-14T12:40:40;12.45;;;6.70;;
30818;SDS011;17546;42.674;23.284;2023-06-14T12:43:06;12.90;;;6.78;;
30818;SDS011;17546;42.674;23.284;2023-06-14T12:45:32;13.63;;;6.88;;
30818;SDS011;17546;42.674;23.284;2023-06-14T12:47:57;9.85;;;6.20;;
30818;SDS011;17546;42.674;23.284;2023-06-14T12:50:22;8.13;;;5.90;;
30818;SDS011;17546;42.674;23.284;2023-06-14T12:52:48;8.50;;;6.13;;
30818;SDS011;17546;42.674;23.284;2023-06-14T12:55:20;12.70;;;7.40;;
30818;SDS011;17546;42.674;23.284;2023-06-14T12:57:46;7.32;;;6.13;;
30818;SDS011;17546;42.674;23.284;2023-06-14T13:00:14;18.70;;;6.47;;
30818;SDS011;17546;42.674;23.284;2023-06-14T13:02:40;9.40;;;6.47;;
30818;SDS011;17546;42.674;23.284;2023-06-14T13:05:05;8.52;;;6.72;;
30818;SDS011;17546;42.674;23.284;2023-06-14T13:07:32;9.88;;;6.75;;
30818;SDS011;17546;42.674;23.284;2023-06-14T13:09:57;10.30;;;6.28;;
30818;SDS011;17546;42.674;23.284;2023-06-14T13:12:24;10.15;;;6.65;;
30818;SDS011;17546;42.674;23.284;2023-06-14T13:14:49;17.70;;;7.20;;
30818;SDS011;17546;42.674;23.284;2023-06-14T13:17:15;12.90;;;6.57;;
30818;SDS011;17546;42.674;23.284;2023-06-14T13:19:40;9.10;;;6.45;;
30818;SDS011;17546;42.674;23.284;2023-06-14T13:22:07;12.02;;;6.72;;
30818;SDS011;17546;42.674;23.284;2023-06-14T13:24:33;18.02;;;7.65;;
30818;SDS011;17546;42.674;23.284;2023-06-14T13:26:59;12.75;;;6.70;;
30818;SDS011;17546;42.674;23.284;2023-06-14T13:29:25;8.25;;;6.50;;
30818;SDS011;17546;42.674;23.284;2023-06-14T13:31:51;13.10;;;6.00;;
30818;SDS011;17546;42.674;23.284;2023-06-14T13:34:22;10.43;;;5.70;;
30818;SDS011;17546;42.674;23.284;2023-06-14T13:36:48;10.15;;;6.57;;
30818;SDS011;17546;42.674;23.284;2023-06-14T13:39:14;12.02;;;7.43;;
30818;SDS011;17546;42.674;23.284;2023-06-14T13:41:40;11.63;;;7.28;;
30818;SDS011;17546;42.674;23.284;2023-06-14T13:44:06;12.07;;;7.40;;
30818;SDS011;17546;42.674;23.284;2023-06-14T13:46:31;16.95;;;7.50;;
30818;SDS011;17546;42.674;23.284;2023-06-14T13:48:57;12.82;;;7.38;;
30818;SDS011;17546;42.674;23.284;2023-06-14T13:51:23;16.10;;;7.78;;
30818;SDS011;17546;42.674;23.284;2023-06-14T13:53:48;15.77;;;7.70;;
30818;SDS011;17546;42.674;23.284;2023-06-14T13:56:15;12.23;;;8.02;;
30818;SDS011;17546;42.674;23.284;2023-06-14T13:58:41;12.20;;;7.82;;
30818;SDS011;17546;42.674;23.284;2023-06-14T14:01:07;10.68;;;7.85;;
30818;SDS011;17546;42.674;23.284;2023-06-14T14:03:33;10.52;;;7.10;;
30818;SDS011;17546;42.674;23.284;2023-06-14T14:06:02;11.27;;;7.20;;
30818;SDS011;17546;42.674;23.284;2023-06-14T14:08:28;13.02;;;7.70;;
30818;SDS011;17546;42.674;23.284;2023-06-14T14:10:54;15.80;;;8.38;;
30818;SDS011;17546;42.674;23.284;2023-06-14T14:13:21;12.70;;;8.20;;
30818;SDS011;17546;42.674;23.284;2023-06-14T14:15:47;12.68;;;8.68;;
30818;SDS011;17546;42.674;23.284;2023-06-14T14:18:14;17.52;;;8.88;;
30818;SDS011;17546;42.674;23.284;2023-06-14T14:20:40;14.52;;;8.43;;
30818;SDS011;17546;42.674;23.284;2023-06-14T14:23:05;16.20;;;9.70;;
30818;SDS011;17546;42.674;23.284;2023-06-14T14:25:31;13.95;;;9.23;;
30818;SDS011;17546;42.674;23.284;2023-06-14T14:27:57;14.00;;;9.10;;
30818;SDS011;17546;42.674;23.284;2023-06-14T14:30:22;12.07;;;8.23;;
30818;SDS011;17546;42.674;23.284;2023-06-14T14:32:49;12.52;;;9.15;;